sensor_id;sensor_type;location;lat;lon;timestamp;pressure;altitude;pressure_sealevel;temperature;humidity
56330;BME280;42236;48.058;10.632;2023-02-11T00:00:41;96527.72;;;-4.13;83.32
56330;BME280;42236;48.058;10.632;2023-02-11T00:03:27;96535.00;;;-4.15;83.10
56330;BME280;42236;48.058;10.632;2023-02-11T00:06:12;96526.28;;;-4.15;83.18
56330;BME280;42236;48.058;10.632;2023-02-11T00:08:59;96525.06;;;-4.19;83.28
56330;BME280;42236;48.058;10.632;2023-02-11T00:11:45;96514.69;;;-4.21;83.52
56330;BME280;42236;48.058;10.632;2023-02-11T00:14:30;96514.69;;;-4.21;83.64
56330;BME280;42236;48.058;10.632;2023-02-11T00:17:16;96515.53;;;-4.20;83.20
56330;BME280;42236;48.058;10.632;2023-02-11T00:20:02;96509.66;;;-4.22;83.43
56330;BME280;42236;48.058;10.632;2023-02-11T00:22:48;96512.66;;;-4.25;83.38
56330;BME280;42236;48.058;10.632;2023-02-11T00:25:37;96519.56;;;-4.31;83.53
56330;BME280;42236;48.058;10.632;2023-02-11T00:28:23;96519.53;;;-4.38;84.37
56330;BME280;42236;48.058;10.632;2023-02-11T00:31:10;96519.31;;;-4.43;84.88
56330;BME280;42236;48.058;10.632;2023-02-11T00:33:55;96515.06;;;-4.51;85.31
56330;BME280;42236;48.058;10.632;2023-02-11T00:36:41;96507.75;;;-4.55;86.19
56330;BME280;42236;48.058;10.632;2023-02-11T00:39:27;96499.03;;;-4.56;86.81
56330;BME280;42236;48.058;10.632;2023-02-11T00:42:13;96503.50;;;-4.56;86.43
56330;BME280;42236;48.058;10.632;2023-02-11T00:44:59;96502.47;;;-4.55;86.36
56330;BME280;42236;48.058;10.632;2023-02-11T00:47:45;96497.63;;;-4.58;86.15
56330;BME280;42236;48.058;10.632;2023-02-11T00:50:30;96495.19;;;-4.60;85.37
56330;BME280;42236;48.058;10.632;2023-02-11T00:53:16;96499.81;;;-4.62;85.97
56330;BME280;42236;48.058;10.632;2023-02-11T00:56:02;96494.78;;;-4.63;86.00
56330;BME280;42236;48.058;10.632;2023-02-11T00:58:47;96490.72;;;-4.66;86.43
56330;BME280;42236;48.058;10.632;2023-02-11T01:01:33;96495.16;;;-4.66;85.69
56330;BME280;42236;48.058;10.632;2023-02-11T01:04:19;96501.44;;;-4.67;85.97
56330;BME280;42236;48.058;10.632;2023-02-11T01:07:05;96502.47;;;-4.68;85.84
56330;BME280;42236;48.058;10.632;2023-02-11T01:09:51;96494.56;;;-4.68;85.71
56330;BME280;42236;48.058;10.632;2023-02-11T01:12:37;96495.56;;;-4.69;86.04
56330;BME280;42236;48.058;10.632;2023-02-11T01:15:23;96491.31;;;-4.70;85.36
56330;BME280;42236;48.058;10.632;2023-02-11T01:18:08;96497.97;;;-4.75;85.56
56330;BME280;42236;48.058;10.632;2023-02-11T01:20:54;96493.13;;;-4.78;85.59
56330;BME280;42236;48.058;10.632;2023-02-11T01:23:40;96490.03;;;-4.81;86.23
56330;BME280;42236;48.058;10.632;2023-02-11T01:26:25;96498.78;;;-4.81;86.31
56330;BME280;42236;48.058;10.632;2023-02-11T01:29:11;96503.66;;;-4.78;86.59
56330;BME280;42236;48.058;10.632;2023-02-11T01:31:56;96496.38;;;-4.76;86.34
56330;BME280;42236;48.058;10.632;2023-02-11T01:34:42;96494.53;;;-4.75;86.01
56330;BME280;42236;48.058;10.632;2023-02-11T01:37:28;96506.50;;;-4.73;85.77
56330;BME280;42236;48.058;10.632;2023-02-11T01:40:15;96508.94;;;-4.71;85.08
56330;BME280;42236;48.058;10.632;2023-02-11T01:43:01;96508.09;;;-4.72;84.68
56330;BME280;42236;48.058;10.632;2023-02-11T01:48:38;96500.22;;;-4.78;84.24
56330;BME280;42236;48.058;10.632;2023-02-11T01:51:32;96490.25;;;-4.83;84.53
56330;BME280;42236;48.058;10.632;2023-02-11T01:54:22;96491.84;;;-4.88;84.20
56330;BME280;42236;48.058;10.632;2023-02-11T01:57:28;96490.63;;;-4.93;84.63
56330;BME280;42236;48.058;10.632;2023-02-11T02:00:29;96482.13;;;-4.95;84.68
56330;BME280;42236;48.058;10.632;2023-02-11T02:03:19;96486.56;;;-5.02;84.57
56330;BME280;42236;48.058;10.632;2023-02-11T02:06:14;96481.25;;;-5.08;85.46
56330;BME280;42236;48.058;10.632;2023-02-11T02:09:05;96484.50;;;-5.06;85.60
56330;BME280;42236;48.058;10.632;2023-02-11T02:11:53;96483.47;;;-5.05;85.67
56330;BME280;42236;48.058;10.632;2023-02-11T02:14:40;96476.00;;;-5.08;85.46
56330;BME280;42236;48.058;10.632;2023-02-11T02:17:37;96468.09;;;-5.08;85.17
56330;BME280;42236;48.058;10.632;2023-02-11T02:33:54;96441.75;;;-5.15;84.47
56330;BME280;42236;48.058;10.632;2023-02-11T02:36:44;96435.28;;;-5.19;84.87
56330;BME280;42236;48.058;10.632;2023-02-11T02:39:34;96431.41;;;-5.23;85.56
56330;BME280;42236;48.058;10.632;2023-02-11T02:42:21;96446.00;;;-5.21;84.98
56330;BME280;42236;48.058;10.632;2023-02-11T02:45:08;96439.72;;;-5.20;84.67
56330;BME280;42236;48.058;10.632;2023-02-11T02:47:55;96432.03;;;-5.21;84.73
56330;BME280;42236;48.058;10.632;2023-02-11T02:50:41;96427.97;;;-5.24;84.80
56330;BME280;42236;48.058;10.632;2023-02-11T03:00:27;96404.69;;;-5.27;86.02
56330;BME280;42236;48.058;10.632;2023-02-11T03:06:30;96413.19;;;-5.25;86.12
56330;BME280;42236;48.058;10.632;2023-02-11T03:12:11;96407.75;;;-5.23;85.76
56330;BME280;42236;48.058;10.632;2023-02-11T03:14:58;96400.88;;;-5.24;85.77
56330;BME280;42236;48.058;10.632;2023-02-11T03:17:47;96395.38;;;-5.23;85.57
56330;BME280;42236;48.058;10.632;2023-02-11T03:20:36;96384.47;;;-5.26;85.97
56330;BME280;42236;48.058;10.632;2023-02-11T03:23:54;96383.63;;;-5.27;86.32
56330;BME280;42236;48.058;10.632;2023-02-11T03:26:52;96382.03;;;-5.28;86.42
56330;BME280;42236;48.058;10.632;2023-02-11T03:29:43;96377.34;;;-5.32;86.83
56330;BME280;42236;48.058;10.632;2023-02-11T03:32:39;96377.53;;;-5.34;86.91
56330;BME280;42236;48.058;10.632;2023-02-11T03:38:44;96376.56;;;-5.33;87.33
56330;BME280;42236;48.058;10.632;2023-02-11T03:41:33;96391.13;;;-5.30;87.04
56330;BME280;42236;48.058;10.632;2023-02-11T03:44:21;96387.72;;;-5.24;86.37
56330;BME280;42236;48.058;10.632;2023-02-11T03:47:11;96386.50;;;-5.22;86.01
56330;BME280;42236;48.058;10.632;2023-02-11T03:50:00;96395.00;;;-5.20;85.58
56330;BME280;42236;48.058;10.632;2023-02-11T03:52:48;96408.38;;;-5.15;85.17
56330;BME280;42236;48.058;10.632;2023-02-11T03:55:38;96408.97;;;-5.12;84.91
56330;BME280;42236;48.058;10.632;2023-02-11T03:58:24;96402.50;;;-5.10;84.85
56330;BME280;42236;48.058;10.632;2023-02-11T04:01:10;96406.56;;;-5.07;84.87
56330;BME280;42236;48.058;10.632;2023-02-11T04:03:56;96401.09;;;-5.06;85.01
56330;BME280;42236;48.058;10.632;2023-02-11T04:06:42;96399.09;;;-5.04;84.63
56330;BME280;42236;48.058;10.632;2023-02-11T04:09:27;96400.31;;;-5.00;84.35
56330;BME280;42236;48.058;10.632;2023-02-11T04:12:13;96398.09;;;-4.96;84.21
56330;BME280;42236;48.058;10.632;2023-02-11T04:14:59;96399.13;;;-4.97;84.45
56330;BME280;42236;48.058;10.632;2023-02-11T04:17:44;96393.84;;;-4.97;84.52
56330;BME280;42236;48.058;10.632;2023-02-11T04:20:30;96396.88;;;-5.00;84.43
56330;BME280;42236;48.058;10.632;2023-02-11T04:23:16;96386.56;;;-5.02;84.79
56330;BME280;42236;48.058;10.632;2023-02-11T04:26:01;96390.00;;;-5.01;85.17
56330;BME280;42236;48.058;10.632;2023-02-11T04:28:47;96402.75;;;-4.98;84.62
56330;BME280;42236;48.058;10.632;2023-02-11T04:31:33;96399.13;;;-4.97;84.57
56330;BME280;42236;48.058;10.632;2023-02-11T04:34:20;96398.31;;;-4.98;84.88
56330;BME280;42236;48.058;10.632;2023-02-11T04:37:06;96386.94;;;-4.98;85.59
56330;BME280;42236;48.058;10.632;2023-02-11T04:39:52;96400.09;;;-4.98;85.50
56330;BME280;42236;48.058;10.632;2023-02-11T04:42:39;96406.00;;;-4.96;85.12
56330;BME280;42236;48.058;10.632;2023-02-11T04:45:25;96401.34;;;-4.94;84.93
56330;BME280;42236;48.058;10.632;2023-02-11T04:48:10;96417.94;;;-4.94;84.92
56330;BME280;42236;48.058;10.632;2023-02-11T04:50:59;96432.13;;;-4.95;84.67
56330;BME280;42236;48.058;10.632;2023-02-11T04:53:45;96441.22;;;-4.90;84.50
56330;BME280;42236;48.058;10.632;2023-02-11T04:56:31;96445.31;;;-4.88;84.05
56330;BME280;42236;48.058;10.632;2023-02-11T04:59:16;96441.25;;;-4.84;84.07
56330;BME280;42236;48.058;10.632;2023-02-11T05:02:02;96447.75;;;-4.80;83.90
56330;BME280;42236;48.058;10.632;2023-02-11T05:04:48;96449.78;;;-4.75;83.71
56330;BME280;42236;48.058;10.632;2023-02-11T05:07:34;96447.56;;;-4.72;83.62
56330;BME280;42236;48.058;10.632;2023-02-11T05:10:19;96457.09;;;-4.70;83.39
56330;BME280;42236;48.058;10.632;2023-02-11T05:13:05;96450.63;;;-4.68;83.62
56330;BME280;42236;48.058;10.632;2023-02-11T05:15:51;96441.50;;;-4.65;83.57
56330;BME280;42236;48.058;10.632;2023-02-11T05:18:38;96438.47;;;-4.62;83.78
56330;BME280;42236;48.058;10.632;2023-02-11T05:21:24;96448.59;;;-4.59;83.99
56330;BME280;42236;48.058;10.632;2023-02-11T05:24:09;96442.94;;;-4.56;84.31
56330;BME280;42236;48.058;10.632;2023-02-11T05:26:55;96437.25;;;-4.53;84.08
56330;BME280;42236;48.058;10.632;2023-02-11T05:29:41;96434.84;;;-4.48;84.58
56330;BME280;42236;48.058;10.632;2023-02-11T05:32:26;96441.72;;;-4.47;85.28
56330;BME280;42236;48.058;10.632;2023-02-11T05:35:12;96437.28;;;-4.46;85.04
56330;BME280;42236;48.058;10.632;2023-02-11T05:37:58;96439.50;;;-4.43;85.47
56330;BME280;42236;48.058;10.632;2023-02-11T05:40:44;96437.25;;;-4.40;85.11
56330;BME280;42236;48.058;10.632;2023-02-11T05:43:29;96440.31;;;-4.36;85.04
56330;BME280;42236;48.058;10.632;2023-02-11T05:46:15;96429.19;;;-4.32;85.25
56330;BME280;42236;48.058;10.632;2023-02-11T05:49:01;96426.75;;;-4.26;85.06
56330;BME280;42236;48.058;10.632;2023-02-11T05:51:47;96430.38;;;-4.21;85.04
56330;BME280;42236;48.058;10.632;2023-02-11T05:54:33;96429.59;;;-4.15;85.11
56330;BME280;42236;48.058;10.632;2023-02-11T05:57:18;96431.63;;;-4.10;85.46
56330;BME280;42236;48.058;10.632;2023-02-11T06:00:05;96426.75;;;-4.07;85.38
56330;BME280;42236;48.058;10.632;2023-02-11T06:02:51;96421.28;;;-4.05;85.64
56330;BME280;42236;48.058;10.632;2023-02-11T06:05:36;96427.16;;;-4.03;85.81
56330;BME280;42236;48.058;10.632;2023-02-11T06:08:22;96428.56;;;-4.00;85.91
56330;BME280;42236;48.058;10.632;2023-02-11T06:11:08;96416.19;;;-4.00;86.24
56330;BME280;42236;48.058;10.632;2023-02-11T06:13:53;96414.97;;;-3.97;86.19
56330;BME280;42236;48.058;10.632;2023-02-11T06:16:39;96393.09;;;-3.98;85.94
56330;BME280;42236;48.058;10.632;2023-02-11T06:19:25;96393.69;;;-3.96;85.52
56330;BME280;42236;48.058;10.632;2023-02-11T06:22:10;96385.78;;;-3.96;86.06
56330;BME280;42236;48.058;10.632;2023-02-11T06:24:56;96368.34;;;-3.97;86.61
56330;BME280;42236;48.058;10.632;2023-02-11T06:27:42;96368.34;;;-3.97;86.79
56330;BME280;42236;48.058;10.632;2023-02-11T06:30:27;96373.22;;;-3.94;86.34
56330;BME280;42236;48.058;10.632;2023-02-11T06:33:13;96382.91;;;-3.88;85.88
56330;BME280;42236;48.058;10.632;2023-02-11T06:36:00;96384.13;;;-3.83;86.02
56330;BME280;42236;48.058;10.632;2023-02-11T06:38:46;96378.44;;;-3.80;85.69
56330;BME280;42236;48.058;10.632;2023-02-11T06:41:32;96395.47;;;-3.76;86.40
56330;BME280;42236;48.058;10.632;2023-02-11T06:44:18;96405.59;;;-3.73;86.28
56330;BME280;42236;48.058;10.632;2023-02-11T06:47:04;96413.72;;;-3.68;85.49
56330;BME280;42236;48.058;10.632;2023-02-11T06:49:49;96420.81;;;-3.62;85.07
56330;BME280;42236;48.058;10.632;2023-02-11T06:52:35;96422.59;;;-3.56;85.07
56330;BME280;42236;48.058;10.632;2023-02-11T06:55:21;96420.75;;;-3.49;84.51
56330;BME280;42236;48.058;10.632;2023-02-11T06:58:06;96412.84;;;-3.49;84.04
56330;BME280;42236;48.058;10.632;2023-02-11T07:00:52;96419.53;;;-3.46;84.51
56330;BME280;42236;48.058;10.632;2023-02-11T07:03:39;96408.78;;;-3.45;84.31
56330;BME280;42236;48.058;10.632;2023-02-11T07:06:26;96413.25;;;-3.45;84.46
56330;BME280;42236;48.058;10.632;2023-02-11T07:09:12;96410.38;;;-3.44;84.36
56330;BME280;42236;48.058;10.632;2023-02-11T07:11:57;96415.28;;;-3.40;84.76
56330;BME280;42236;48.058;10.632;2023-02-11T07:14:43;96401.06;;;-3.39;85.00
56330;BME280;42236;48.058;10.632;2023-02-11T07:17:29;96402.25;;;-3.35;85.09
56330;BME280;42236;48.058;10.632;2023-02-11T07:20:15;96399.81;;;-3.30;85.48
56330;BME280;42236;48.058;10.632;2023-02-11T07:23:00;96397.34;;;-3.25;85.55
56330;BME280;42236;48.058;10.632;2023-02-11T07:25:46;96393.28;;;-3.21;85.48
56330;BME280;42236;48.058;10.632;2023-02-11T07:28:33;96396.91;;;-3.15;85.78
56330;BME280;42236;48.058;10.632;2023-02-11T07:31:22;96408.03;;;-3.07;85.24
56330;BME280;42236;48.058;10.632;2023-02-11T07:34:09;96410.22;;;-2.97;85.61
56330;BME280;42236;48.058;10.632;2023-02-11T07:36:54;96408.13;;;-2.88;85.39
56330;BME280;42236;48.058;10.632;2023-02-11T07:39:40;96416.00;;;-2.75;85.34
56330;BME280;42236;48.058;10.632;2023-02-11T07:42:26;96405.97;;;-2.66;85.31
56330;BME280;42236;48.058;10.632;2023-02-11T07:45:11;96408.56;;;-2.60;85.86
56330;BME280;42236;48.058;10.632;2023-02-11T07:47:58;96411.97;;;-2.52;86.09
56330;BME280;42236;48.058;10.632;2023-02-11T07:50:44;96421.09;;;-2.48;86.11
56330;BME280;42236;48.058;10.632;2023-02-11T07:53:29;96424.50;;;-2.41;85.57
56330;BME280;42236;48.058;10.632;2023-02-11T07:56:16;96437.03;;;-2.30;85.28
56330;BME280;42236;48.058;10.632;2023-02-11T07:59:02;96434.13;;;-2.22;85.05
56330;BME280;42236;48.058;10.632;2023-02-11T08:01:48;96420.03;;;-2.16;84.71
56330;BME280;42236;48.058;10.632;2023-02-11T08:04:35;96404.78;;;-2.13;84.94
56330;BME280;42236;48.058;10.632;2023-02-11T08:07:21;96405.97;;;-2.09;85.16
56330;BME280;42236;48.058;10.632;2023-02-11T08:10:07;96406.28;;;-1.99;85.17
56330;BME280;42236;48.058;10.632;2023-02-11T08:12:52;96424.84;;;-1.81;84.75
56330;BME280;42236;48.058;10.632;2023-02-11T08:15:39;96421.19;;;-1.61;84.41
56330;BME280;42236;48.058;10.632;2023-02-11T08:18:25;96420.19;;;-1.42;84.18
56330;BME280;42236;48.058;10.632;2023-02-11T08:21:10;96401.47;;;-1.29;84.07
56330;BME280;42236;48.058;10.632;2023-02-11T08:23:56;96401.34;;;-1.15;83.58
56330;BME280;42236;48.058;10.632;2023-02-11T08:26:42;96395.84;;;-1.02;83.91
56330;BME280;42236;48.058;10.632;2023-02-11T08:29:27;96384.78;;;-0.80;83.88
56330;BME280;42236;48.058;10.632;2023-02-11T08:32:13;96385.31;;;-0.60;83.68
56330;BME280;42236;48.058;10.632;2023-02-11T08:34:59;96380.41;;;-0.45;82.82
56330;BME280;42236;48.058;10.632;2023-02-11T08:37:44;96390.66;;;-0.36;82.44
56330;BME280;42236;48.058;10.632;2023-02-11T08:40:30;96394.84;;;-0.29;81.84
56330;BME280;42236;48.058;10.632;2023-02-11T08:43:16;96391.94;;;-0.27;81.88
56330;BME280;42236;48.058;10.632;2023-02-11T08:46:02;96399.47;;;-0.24;81.87
56330;BME280;42236;48.058;10.632;2023-02-11T08:48:47;96399.59;;;-0.19;82.15
56330;BME280;42236;48.058;10.632;2023-02-11T08:51:33;96405.47;;;-0.17;81.73
56330;BME280;42236;48.058;10.632;2023-02-11T08:54:19;96418.97;;;-0.07;82.20
56330;BME280;42236;48.058;10.632;2023-02-11T08:57:04;96424.06;;;0.07;81.43
56330;BME280;42236;48.058;10.632;2023-02-11T08:59:50;96400.78;;;0.20;81.92
56330;BME280;42236;48.058;10.632;2023-02-11T09:02:36;96402.38;;;0.33;81.78
56330;BME280;42236;48.058;10.632;2023-02-11T09:05:21;96405.38;;;0.49;81.66
56330;BME280;42236;48.058;10.632;2023-02-11T09:08:07;96407.56;;;0.63;81.46
56330;BME280;42236;48.058;10.632;2023-02-11T09:10:55;96408.66;;;0.79;81.35
56330;BME280;42236;48.058;10.632;2023-02-11T09:13:43;96408.50;;;0.98;80.87
56330;BME280;42236;48.058;10.632;2023-02-11T09:16:31;96408.22;;;1.11;80.08
56330;BME280;42236;48.058;10.632;2023-02-11T09:19:18;96406.38;;;1.23;79.74
56330;BME280;42236;48.058;10.632;2023-02-11T09:22:04;96392.44;;;1.33;79.96
56330;BME280;42236;48.058;10.632;2023-02-11T09:24:49;96386.25;;;1.44;79.04
56330;BME280;42236;48.058;10.632;2023-02-11T09:27:35;96388.28;;;1.54;77.97
56330;BME280;42236;48.058;10.632;2023-02-11T09:30:21;96391.94;;;1.65;78.12
56330;BME280;42236;48.058;10.632;2023-02-11T09:33:06;96384.91;;;1.76;77.92
56330;BME280;42236;48.058;10.632;2023-02-11T09:35:52;96392.59;;;1.89;77.13
56330;BME280;42236;48.058;10.632;2023-02-11T09:38:38;96401.25;;;1.96;76.74
56330;BME280;42236;48.058;10.632;2023-02-11T09:44:19;96409.22;;;2.13;75.75
56330;BME280;42236;48.058;10.632;2023-02-11T09:47:27;96410.03;;;2.13;73.22
56330;BME280;42236;48.058;10.632;2023-02-11T09:50:15;96410.31;;;2.17;74.81
56330;BME280;42236;48.058;10.632;2023-02-11T09:53:11;96401.88;;;2.20;74.68
56330;BME280;42236;48.058;10.632;2023-02-11T09:56:02;96398.28;;;2.31;75.28
56330;BME280;42236;48.058;10.632;2023-02-11T09:58:49;96392.88;;;2.43;74.77
56330;BME280;42236;48.058;10.632;2023-02-11T10:02:03;96389.81;;;2.51;72.68
56330;BME280;42236;48.058;10.632;2023-02-11T10:08:02;96380.66;;;2.64;71.96
56330;BME280;42236;48.058;10.632;2023-02-11T10:11:04;96373.50;;;2.70;74.34
56330;BME280;42236;48.058;10.632;2023-02-11T10:14:06;96386.34;;;2.73;74.90
56330;BME280;42236;48.058;10.632;2023-02-11T10:16:58;96376.81;;;2.77;74.19
56330;BME280;42236;48.058;10.632;2023-02-11T10:20:02;96384.38;;;2.85;73.73
56330;BME280;42236;48.058;10.632;2023-02-11T10:22:54;96364.78;;;2.96;73.82
56330;BME280;42236;48.058;10.632;2023-02-11T10:25:43;96371.03;;;3.07;73.13
56330;BME280;42236;48.058;10.632;2023-02-11T10:28:35;96362.31;;;3.12;72.39
56330;BME280;42236;48.058;10.632;2023-02-11T10:31:26;96360.50;;;3.17;71.76
56330;BME280;42236;48.058;10.632;2023-02-11T10:34:13;96367.75;;;3.22;72.37
56330;BME280;42236;48.058;10.632;2023-02-11T10:36:59;96369.59;;;3.22;71.99
56330;BME280;42236;48.058;10.632;2023-02-11T10:39:45;96370.44;;;3.27;71.96
56330;BME280;42236;48.058;10.632;2023-02-11T10:42:30;96371.75;;;3.25;70.25
56330;BME280;42236;48.058;10.632;2023-02-11T10:45:31;96364.50;;;3.20;68.43
56330;BME280;42236;48.058;10.632;2023-02-11T10:51:27;96353.75;;;3.37;69.06
56330;BME280;42236;48.058;10.632;2023-02-11T10:54:17;96348.31;;;3.54;68.87
56330;BME280;42236;48.058;10.632;2023-02-11T10:57:17;96355.13;;;3.72;67.83
56330;BME280;42236;48.058;10.632;2023-02-11T11:00:19;96350.75;;;3.93;64.70
56330;BME280;42236;48.058;10.632;2023-02-11T11:03:21;96346.88;;;4.11;63.34
56330;BME280;42236;48.058;10.632;2023-02-11T11:06:08;96344.28;;;4.21;66.73
56330;BME280;42236;48.058;10.632;2023-02-11T11:08:54;96340.78;;;4.20;65.12
56330;BME280;42236;48.058;10.632;2023-02-11T11:11:51;96337.91;;;4.27;62.33
56330;BME280;42236;48.058;10.632;2023-02-11T11:14:37;96332.91;;;4.36;65.72
56330;BME280;42236;48.058;10.632;2023-02-11T11:17:22;96346.28;;;4.41;63.83
56330;BME280;42236;48.058;10.632;2023-02-11T11:20:22;96344.13;;;4.38;61.09
56330;BME280;42236;48.058;10.632;2023-02-11T11:23:17;96343.06;;;4.39;61.26
56330;BME280;42236;48.058;10.632;2023-02-11T11:26:06;96342.47;;;4.32;61.16
56330;BME280;42236;48.058;10.632;2023-02-11T11:28:57;96341.09;;;4.24;60.91
56330;BME280;42236;48.058;10.632;2023-02-11T11:31:58;96335.00;;;4.28;59.89
56330;BME280;42236;48.058;10.632;2023-02-11T11:34:51;96330.25;;;4.41;58.55
56330;BME280;42236;48.058;10.632;2023-02-11T11:37:38;96325.47;;;4.48;59.23
56330;BME280;42236;48.058;10.632;2023-02-11T11:40:29;96323.91;;;4.57;58.37
56330;BME280;42236;48.058;10.632;2023-02-11T11:43:18;96311.41;;;4.73;57.19
56330;BME280;42236;48.058;10.632;2023-02-11T11:46:05;96311.19;;;4.85;56.77
56330;BME280;42236;48.058;10.632;2023-02-11T11:48:55;96311.72;;;4.87;56.55
56330;BME280;42236;48.058;10.632;2023-02-11T11:51:50;96311.22;;;4.95;56.58
56330;BME280;42236;48.058;10.632;2023-02-11T11:54:39;96319.25;;;4.95;56.96
56330;BME280;42236;48.058;10.632;2023-02-11T11:57:27;96321.41;;;4.98;56.83
56330;BME280;42236;48.058;10.632;2023-02-11T12:00:27;96327.78;;;4.92;53.41
56330;BME280;42236;48.058;10.632;2023-02-11T12:03:29;96331.00;;;4.89;55.37
56330;BME280;42236;48.058;10.632;2023-02-11T12:06:25;96323.50;;;4.86;57.03
56330;BME280;42236;48.058;10.632;2023-02-11T12:09:37;96318.94;;;4.76;53.44
56330;BME280;42236;48.058;10.632;2023-02-11T12:13:33;96317.53;;;4.68;53.08
56330;BME280;42236;48.058;10.632;2023-02-11T12:25:37;96313.81;;;4.64;53.90
56330;BME280;42236;48.058;10.632;2023-02-11T12:28:51;96318.13;;;4.81;52.83
56330;BME280;42236;48.058;10.632;2023-02-11T12:32:07;96305.91;;;5.00;52.38
56330;BME280;42236;48.058;10.632;2023-02-11T12:38:07;96306.47;;;5.07;50.94
56330;BME280;42236;48.058;10.632;2023-02-11T12:43:54;96300.03;;;5.08;54.12
56330;BME280;42236;48.058;10.632;2023-02-11T12:53:34;96286.38;;;5.05;52.64
56330;BME280;42236;48.058;10.632;2023-02-11T13:02:32;96284.59;;;5.46;51.62
56330;BME280;42236;48.058;10.632;2023-02-11T13:05:33;96277.63;;;5.61;50.01
56330;BME280;42236;48.058;10.632;2023-02-11T13:08:33;96279.75;;;5.69;50.80
56330;BME280;42236;48.058;10.632;2023-02-11T13:11:36;96264.22;;;5.76;50.45
56330;BME280;42236;48.058;10.632;2023-02-11T13:14:32;96268.50;;;5.77;52.08
56330;BME280;42236;48.058;10.632;2023-02-11T13:17:27;96271.47;;;5.81;52.52
56330;BME280;42236;48.058;10.632;2023-02-11T13:20:48;96263.66;;;5.89;51.38
56330;BME280;42236;48.058;10.632;2023-02-11T13:23:40;96266.38;;;5.94;52.07
56330;BME280;42236;48.058;10.632;2023-02-11T13:26:56;96267.72;;;6.02;52.60
56330;BME280;42236;48.058;10.632;2023-02-11T13:30:23;96264.22;;;6.07;53.27
56330;BME280;42236;48.058;10.632;2023-02-11T13:39:04;96263.66;;;6.15;51.30
56330;BME280;42236;48.058;10.632;2023-02-11T13:42:01;96257.22;;;6.21;52.09
56330;BME280;42236;48.058;10.632;2023-02-11T13:44:47;96251.81;;;6.31;52.25
56330;BME280;42236;48.058;10.632;2023-02-11T13:47:36;96241.31;;;6.40;51.59
56330;BME280;42236;48.058;10.632;2023-02-11T13:50:23;96247.50;;;6.40;50.69
56330;BME280;42236;48.058;10.632;2023-02-11T13:53:10;96254.72;;;6.45;52.09
56330;BME280;42236;48.058;10.632;2023-02-11T13:56:22;96251.25;;;6.39;51.03
56330;BME280;42236;48.058;10.632;2023-02-11T14:02:28;96248.34;;;6.31;52.29
56330;BME280;42236;48.058;10.632;2023-02-11T14:05:33;96247.53;;;6.30;52.95
56330;BME280;42236;48.058;10.632;2023-02-11T14:12:21;96252.38;;;6.33;52.41
56330;BME280;42236;48.058;10.632;2023-02-11T14:17:52;96250.41;;;6.49;53.96
56330;BME280;42236;48.058;10.632;2023-02-11T14:20:41;96248.78;;;6.58;53.71
56330;BME280;42236;48.058;10.632;2023-02-11T14:23:28;96248.44;;;6.70;53.37
56330;BME280;42236;48.058;10.632;2023-02-11T14:29:13;96246.78;;;6.84;53.17
56330;BME280;42236;48.058;10.632;2023-02-11T14:32:12;96239.25;;;6.87;51.42
56330;BME280;42236;48.058;10.632;2023-02-11T14:35:22;96254.00;;;6.89;51.88
56330;BME280;42236;48.058;10.632;2023-02-11T14:41:39;96246.78;;;6.84;52.12
56330;BME280;42236;48.058;10.632;2023-02-11T14:44:27;96239.00;;;6.83;53.26
56330;BME280;42236;48.058;10.632;2023-02-11T14:47:20;96245.72;;;6.80;52.33
56330;BME280;42236;48.058;10.632;2023-02-11T14:50:18;96243.06;;;6.75;51.76
56330;BME280;42236;48.058;10.632;2023-02-11T14:53:14;96240.38;;;6.75;53.11
56330;BME280;42236;48.058;10.632;2023-02-11T14:56:01;96235.28;;;6.74;53.90
56330;BME280;42236;48.058;10.632;2023-02-11T14:58:48;96236.63;;;6.71;53.83
56330;BME280;42236;48.058;10.632;2023-02-11T15:01:40;96241.47;;;6.69;54.04
56330;BME280;42236;48.058;10.632;2023-02-11T15:04:29;96246.31;;;6.67;54.22
56330;BME280;42236;48.058;10.632;2023-02-11T15:07:16;96249.00;;;6.67;54.49
56330;BME280;42236;48.058;10.632;2023-02-11T15:10:02;96257.06;;;6.67;54.81
56330;BME280;42236;48.058;10.632;2023-02-11T15:12:48;96258.66;;;6.68;55.18
56330;BME280;42236;48.058;10.632;2023-02-11T15:15:38;96260.81;;;6.66;55.35
56330;BME280;42236;48.058;10.632;2023-02-11T15:18:31;96262.94;;;6.64;55.19
56330;BME280;42236;48.058;10.632;2023-02-11T15:21:24;96256.00;;;6.63;55.33
56330;BME280;42236;48.058;10.632;2023-02-11T15:30:00;96276.94;;;6.56;56.59
56330;BME280;42236;48.058;10.632;2023-02-11T15:32:46;96270.78;;;6.55;56.51
56330;BME280;42236;48.058;10.632;2023-02-11T15:35:38;96274.00;;;6.57;55.61
56330;BME280;42236;48.058;10.632;2023-02-11T15:38:25;96271.56;;;6.56;56.39
56330;BME280;42236;48.058;10.632;2023-02-11T15:41:34;96274.53;;;6.49;55.74
56330;BME280;42236;48.058;10.632;2023-02-11T15:44:28;96272.44;;;6.41;56.60
56330;BME280;42236;48.058;10.632;2023-02-11T15:47:19;96281.84;;;6.33;57.27
56330;BME280;42236;48.058;10.632;2023-02-11T15:50:06;96280.25;;;6.27;57.23
56330;BME280;42236;48.058;10.632;2023-02-11T15:52:52;96285.63;;;6.22;57.56
56330;BME280;42236;48.058;10.632;2023-02-11T15:55:40;96279.19;;;6.18;57.27
56330;BME280;42236;48.058;10.632;2023-02-11T15:58:26;96271.44;;;6.16;57.54
56330;BME280;42236;48.058;10.632;2023-02-11T16:01:12;96277.06;;;6.15;58.04
56330;BME280;42236;48.058;10.632;2023-02-11T16:03:58;96282.16;;;6.11;58.59
56330;BME280;42236;48.058;10.632;2023-02-11T16:06:45;96287.50;;;6.06;58.92
56330;BME280;42236;48.058;10.632;2023-02-11T16:09:35;96280.56;;;6.00;59.57
56330;BME280;42236;48.058;10.632;2023-02-11T16:12:24;96274.66;;;5.93;59.38
56330;BME280;42236;48.058;10.632;2023-02-11T16:18:38;96272.78;;;5.78;59.58
56330;BME280;42236;48.058;10.632;2023-02-11T16:21:42;96282.97;;;5.71;58.98
56330;BME280;42236;48.058;10.632;2023-02-11T16:24:32;96288.59;;;5.59;59.78
56330;BME280;42236;48.058;10.632;2023-02-11T16:27:22;96294.47;;;5.46;59.42
56330;BME280;42236;48.058;10.632;2023-02-11T16:30:31;96306.78;;;5.42;57.53
56330;BME280;42236;48.058;10.632;2023-02-11T16:33:17;96310.81;;;5.39;59.21